createdAt,value
2019-01-24T00:00:39.916Z,75.71
2019-01-24T00:03:09.045Z,76.12
2019-01-24T00:05:38.181Z,76.17
2019-01-24T00:08:07.238Z,75.48
2019-01-24T00:10:36.320Z,75.93
2019-01-24T00:13:05.493Z,75.96
2019-01-24T00:15:34.621Z,75.76
2019-01-24T00:18:03.754Z,75.99
2019-01-24T00:20:32.951Z,76.13
2019-01-24T00:23:02.018Z,75.51
2019-01-24T00:25:31.113Z,75.63
2019-01-24T00:28:00.207Z,75.59
2019-01-24T00:30:29.373Z,75.59
2019-01-24T00:32:58.492Z,75.99
2019-01-24T00:35:27.651Z,75.79
2019-01-24T00:37:56.782Z,75.58
2019-01-24T00:40:25.968Z,75.20
2019-01-24T00:42:55.102Z,75.25
2019-01-24T00:45:24.198Z,76.15
2019-01-24T00:47:53.381Z,76.67
2019-01-24T00:50:22.573Z,76.38
2019-01-24T00:52:51.671Z,75.60
2019-01-24T00:55:21.487Z,76.65
2019-01-24T00:57:50.595Z,76.32
2019-01-24T01:00:21.842Z,76.07
2019-01-24T01:02:51.015Z,75.85
2019-01-24T01:05:20.326Z,75.75
2019-01-24T01:07:49.596Z,75.87
2019-01-24T01:10:18.718Z,75.66
2019-01-24T01:12:47.838Z,75.24
2019-01-24T01:15:17.963Z,75.65
2019-01-24T01:17:47.068Z,76.28
2019-01-24T01:20:20.849Z,76.50
2019-01-24T01:22:50.073Z,76.33
2019-01-24T01:25:19.210Z,76.52
2019-01-24T01:27:48.367Z,76.93
2019-01-24T01:30:19.579Z,75.77
2019-01-24T01:32:48.712Z,75.91
2019-01-24T01:35:17.909Z,76.13
2019-01-24T01:37:46.964Z,76.04
2019-01-24T01:40:16.630Z,75.90
2019-01-24T01:42:45.739Z,76.03
2019-01-24T01:45:16.952Z,76.11
2019-01-24T01:47:46.118Z,77.10
2019-01-24T01:50:16.966Z,77.12
2019-01-24T01:52:46.060Z,76.54
2019-01-24T01:55:15.440Z,76.96
2019-01-24T01:57:44.617Z,76.97
2019-01-24T02:00:18.703Z,77.84
2019-01-24T02:02:47.840Z,77.62
2019-01-24T02:05:17.004Z,77.63
2019-01-24T02:07:46.172Z,78.17
2019-01-24T02:10:17.386Z,77.45
2019-01-24T02:12:46.571Z,77.33
2019-01-24T02:15:15.943Z,76.64
2019-01-24T02:17:45.240Z,76.98
2019-01-24T02:20:16.986Z,77.63
2019-01-24T02:22:46.039Z,77.52
2019-01-24T02:25:15.137Z,77.90
2019-01-24T02:27:44.215Z,77.94
2019-01-24T02:30:18.992Z,78.25
2019-01-24T02:32:48.212Z,78.08
2019-01-24T02:35:17.330Z,77.15
2019-01-24T02:37:46.522Z,77.08
2019-01-24T02:40:15.646Z,77.11
2019-01-24T02:42:44.769Z,76.52
2019-01-24T02:45:15.078Z,76.10
2019-01-24T02:47:44.217Z,76.70
2019-01-24T02:50:15.060Z,77.21
2019-01-24T02:52:44.155Z,77.57
2019-01-24T02:55:14.419Z,77.82
2019-01-24T02:57:43.827Z,77.70
2019-01-24T03:00:15.382Z,76.92
2019-01-24T03:02:44.482Z,77.40
2019-01-24T03:05:15.090Z,77.45
2019-01-24T03:07:44.264Z,77.10
2019-01-24T03:10:13.947Z,77.24
2019-01-24T03:12:43.093Z,77.02
2019-01-24T03:15:13.929Z,77.21
2019-01-24T03:17:43.115Z,76.55
2019-01-24T03:20:12.360Z,76.44
2019-01-24T03:22:42.360Z,76.31
2019-01-24T03:25:11.461Z,76.49
2019-01-24T03:27:40.624Z,76.86
2019-01-24T03:30:15.263Z,76.92
2019-01-24T03:32:44.355Z,76.47
2019-01-24T03:35:15.692Z,76.70
2019-01-24T03:37:44.862Z,77.19
2019-01-24T03:40:14.301Z,76.44
2019-01-24T03:42:43.437Z,76.45
2019-01-24T03:45:14.043Z,76.97
2019-01-24T03:47:43.185Z,76.21
2019-01-24T03:50:14.841Z,75.95
2019-01-24T03:52:43.994Z,76.51
2019-01-24T03:55:14.158Z,76.61
2019-01-24T03:57:43.269Z,76.80
2019-01-24T04:00:17.790Z,77.38
2019-01-24T04:02:46.938Z,77.06
2019-01-24T04:05:16.136Z,77.11
2019-01-24T04:07:45.337Z,77.04
2019-01-24T04:10:16.288Z,76.94
2019-01-24T04:12:45.395Z,76.98
2019-01-24T04:15:16.662Z,76.90
2019-01-24T04:17:45.763Z,76.93
2019-01-24T04:20:14.835Z,77.53
2019-01-24T04:22:44.002Z,77.51
2019-01-24T04:25:13.427Z,77.20
2019-01-24T04:27:42.537Z,77.68
2019-01-24T04:30:14.276Z,76.84
2019-01-24T04:32:43.403Z,77.15
2019-01-24T04:35:19.429Z,77.40
2019-01-24T04:37:43.339Z,77.64
2019-01-24T04:40:14.358Z,77.11
2019-01-24T04:42:43.507Z,77.22
2019-01-24T04:45:13.547Z,77.50
2019-01-24T04:47:42.602Z,77.64
2019-01-24T04:50:13.611Z,76.85
2019-01-24T04:52:42.783Z,75.67
2019-01-24T04:55:13.129Z,76.32
2019-01-24T04:57:42.251Z,76.85
2019-01-24T05:00:28.489Z,77.40
2019-01-24T05:02:57.579Z,77.18
2019-01-24T05:05:28.077Z,77.10
2019-01-24T05:07:57.364Z,77.11
2019-01-24T05:10:26.476Z,77.83
2019-01-24T05:12:55.610Z,77.79
2019-01-24T05:15:24.796Z,77.65
2019-01-24T05:17:54.006Z,76.73
2019-01-24T05:20:23.188Z,76.14
2019-01-24T05:22:52.226Z,76.25
2019-01-24T05:25:21.377Z,76.00
2019-01-24T05:27:50.438Z,76.02
2019-01-24T05:30:24.346Z,76.51
2019-01-24T05:32:55.273Z,76.57
2019-01-24T05:35:24.507Z,77.45
2019-01-24T05:37:53.620Z,77.71
2019-01-24T05:40:22.786Z,77.04
2019-01-24T05:42:51.889Z,77.17
2019-01-24T05:45:20.971Z,77.29
2019-01-24T05:47:50.057Z,77.26
2019-01-24T05:50:19.123Z,77.71
2019-01-24T05:52:48.268Z,76.78
2019-01-24T05:55:17.684Z,76.53
2019-01-24T05:57:46.849Z,76.96
2019-01-24T06:00:22.408Z,77.15
2019-01-24T06:02:51.478Z,76.57
2019-01-24T06:05:20.714Z,76.32
2019-01-24T06:07:49.855Z,76.87
2019-01-24T06:10:19.052Z,76.99
2019-01-24T06:12:48.111Z,76.81
2019-01-24T06:15:17.276Z,76.78
2019-01-24T06:17:46.352Z,76.88
2019-01-24T06:20:15.426Z,77.18
2019-01-24T06:22:44.608Z,76.90
2019-01-24T06:25:13.872Z,77.23
2019-01-24T06:27:43.014Z,77.97
2019-01-24T06:30:17.334Z,77.79
2019-01-24T06:32:46.468Z,77.72
2019-01-24T06:35:15.530Z,77.80
2019-01-24T06:37:44.670Z,77.76
2019-01-24T06:40:14.564Z,77.95
2019-01-24T06:42:43.720Z,77.67
2019-01-24T06:45:17.897Z,76.98
2019-01-24T06:47:47.065Z,77.29
2019-01-24T06:50:16.740Z,77.80
2019-01-24T06:52:45.836Z,77.31
2019-01-24T06:55:17.516Z,77.20
2019-01-24T06:57:46.845Z,77.51
2019-01-24T07:00:16.889Z,77.42
2019-01-24T07:02:46.100Z,76.30
2019-01-24T07:05:15.345Z,76.52
2019-01-24T07:07:44.575Z,76.90
2019-01-24T07:10:15.602Z,77.62
2019-01-24T07:12:44.766Z,76.75
2019-01-24T07:15:18.702Z,76.57
2019-01-24T07:17:47.740Z,76.84
2019-01-24T07:20:17.223Z,77.49
2019-01-24T07:22:46.359Z,77.67
2019-01-24T07:25:17.849Z,77.83
2019-01-24T07:27:46.933Z,77.06
2019-01-24T07:30:16.687Z,77.32
2019-01-24T07:32:45.888Z,77.20
2019-01-24T07:35:16.169Z,76.75
2019-01-24T07:37:45.275Z,76.47
2019-01-24T07:40:15.567Z,76.26
2019-01-24T07:42:44.676Z,76.48
2019-01-24T07:45:15.981Z,76.14
2019-01-24T07:47:45.132Z,76.20
2019-01-24T07:50:14.276Z,76.31
2019-01-24T07:52:43.429Z,75.96
2019-01-24T07:55:12.732Z,75.72
2019-01-24T07:57:41.991Z,76.00
2019-01-24T08:00:17.156Z,76.35
2019-01-24T08:02:46.241Z,76.65
2019-01-24T08:05:15.409Z,76.44
2019-01-24T08:07:44.563Z,75.58
2019-01-24T08:10:14.864Z,75.26
2019-01-24T08:12:44.043Z,75.35
2019-01-24T08:15:14.277Z,75.64
2019-01-24T08:17:43.545Z,75.76
2019-01-24T08:20:21.067Z,74.46
2019-01-24T08:22:50.109Z,74.72
2019-01-24T08:25:19.189Z,74.89
2019-01-24T08:27:48.312Z,74.49
2019-01-24T08:30:19.378Z,74.48
2019-01-24T08:32:48.499Z,74.75
2019-01-24T08:35:17.695Z,74.90
2019-01-24T08:37:46.931Z,74.42
2019-01-24T08:40:16.205Z,74.21
2019-01-24T08:42:45.266Z,74.37
2019-01-24T08:45:15.039Z,75.28
2019-01-24T08:47:44.136Z,74.70
2019-01-24T08:50:15.666Z,74.51
2019-01-24T08:52:44.830Z,73.29
2019-01-24T08:55:19.966Z,73.45
2019-01-24T08:57:49.000Z,73.92
2019-01-24T09:00:19.364Z,73.78
2019-01-24T09:02:48.588Z,73.97
2019-01-24T09:05:17.731Z,73.51
2019-01-24T09:07:46.946Z,72.95
2019-01-24T09:10:18.944Z,73.71
2019-01-24T09:12:48.040Z,72.33
2019-01-24T09:15:17.176Z,71.85
2019-01-24T09:17:46.242Z,72.61
2019-01-24T09:20:16.036Z,72.93
2019-01-24T09:22:45.217Z,73.35
2019-01-24T09:25:14.357Z,73.11
2019-01-24T09:27:43.507Z,73.41
2019-01-24T09:30:15.363Z,73.02
2019-01-24T09:32:44.477Z,72.78
2019-01-24T09:35:13.565Z,72.81
2019-01-24T09:37:42.628Z,72.55
2019-01-24T09:40:12.589Z,72.77
2019-01-24T09:42:41.727Z,72.73
2019-01-24T09:45:13.574Z,72.50
2019-01-24T09:47:42.715Z,72.85
2019-01-24T09:50:14.349Z,72.16
2019-01-24T09:52:43.422Z,71.03
2019-01-24T09:55:12.511Z,72.25
2019-01-24T09:57:41.591Z,72.62
2019-01-24T10:00:15.640Z,71.30
2019-01-24T10:02:44.806Z,71.56
2019-01-24T10:05:14.003Z,71.40
2019-01-24T10:07:43.134Z,70.92
2019-01-24T10:10:14.601Z,70.59
2019-01-24T10:12:43.812Z,70.76
2019-01-24T10:15:13.094Z,70.36
2019-01-24T10:17:42.239Z,71.07
2019-01-24T10:20:13.100Z,70.74
2019-01-24T10:22:42.245Z,70.57
2019-01-24T10:25:15.527Z,70.04
2019-01-24T10:27:44.637Z,70.18
2019-01-24T10:30:15.173Z,70.89
2019-01-24T10:32:44.328Z,71.43
2019-01-24T10:35:13.461Z,71.14
2019-01-24T10:37:42.645Z,70.68
2019-01-24T10:40:14.765Z,70.61
2019-01-24T10:42:43.824Z,71.60
2019-01-24T10:45:14.229Z,71.57
2019-01-24T10:47:43.366Z,70.22
2019-01-24T10:50:13.722Z,69.93
2019-01-24T10:52:42.842Z,70.51
2019-01-24T10:55:13.937Z,70.02
2019-01-24T10:57:43.173Z,70.55
2019-01-24T11:00:15.335Z,70.19
2019-01-24T11:02:44.469Z,69.82
2019-01-24T11:05:14.608Z,69.10
2019-01-24T11:07:43.654Z,68.64
2019-01-24T11:10:13.057Z,68.74
2019-01-24T11:12:42.298Z,70.31
2019-01-24T11:15:14.283Z,68.77
2019-01-24T11:17:43.403Z,67.00
2019-01-24T11:20:13.309Z,65.45
2019-01-24T11:22:42.422Z,64.96
2019-01-24T11:25:16.606Z,65.48
2019-01-24T11:27:45.906Z,65.91
2019-01-24T11:30:20.401Z,62.27
2019-01-24T11:32:49.478Z,61.16
2019-01-24T11:35:18.900Z,60.13
2019-01-24T11:37:47.957Z,59.01
2019-01-24T11:40:17.530Z,62.56
2019-01-24T11:42:46.852Z,62.14
2019-01-24T11:45:16.791Z,58.39
2019-01-24T11:47:46.007Z,54.89
2019-01-24T11:50:18.708Z,51.77
2019-01-24T11:52:47.770Z,53.68
2019-01-24T11:55:18.173Z,56.50
2019-01-24T11:57:47.371Z,62.30
2019-01-24T12:00:21.557Z,65.97
2019-01-24T12:02:50.714Z,67.21
2019-01-24T12:05:19.873Z,68.01
2019-01-24T12:07:49.026Z,67.78
2019-01-24T12:10:20.015Z,68.49
2019-01-24T12:12:49.362Z,68.95
2019-01-24T12:15:19.680Z,68.62
2019-01-24T12:17:48.772Z,68.44
2019-01-24T12:20:19.397Z,69.26
2019-01-24T12:22:48.536Z,69.20
2019-01-24T12:25:17.736Z,69.22
2019-01-24T12:27:47.647Z,68.17
2019-01-24T12:30:22.420Z,69.30
2019-01-24T12:32:51.495Z,69.42
2019-01-24T12:35:20.656Z,68.90
2019-01-24T12:37:49.825Z,68.74
2019-01-24T12:40:18.886Z,69.19
2019-01-24T12:42:48.012Z,69.47
2019-01-24T12:45:19.526Z,69.91
2019-01-24T12:47:48.604Z,70.11
2019-01-24T12:50:18.033Z,69.75
2019-01-24T12:52:47.171Z,70.15
2019-01-24T12:55:16.372Z,70.68
2019-01-24T12:57:45.618Z,69.32
2019-01-24T13:00:34.900Z,69.49
2019-01-24T13:03:03.970Z,69.50
2019-01-24T13:05:33.035Z,69.96
2019-01-24T13:08:02.104Z,70.30
2019-01-24T13:10:31.374Z,70.27
2019-01-24T13:13:00.515Z,70.09
2019-01-24T13:15:31.503Z,70.74
2019-01-24T13:18:00.628Z,70.19
2019-01-24T13:20:29.760Z,70.67
2019-01-24T13:22:58.880Z,69.97
2019-01-24T13:25:32.946Z,69.62
2019-01-24T13:28:02.228Z,70.24
2019-01-24T13:30:32.738Z,70.28
2019-01-24T13:33:01.996Z,70.71
2019-01-24T13:35:31.145Z,70.01
2019-01-24T13:38:00.321Z,69.41
2019-01-24T13:40:30.758Z,70.26
2019-01-24T13:43:00.542Z,70.34
2019-01-24T13:45:34.486Z,70.01
2019-01-24T13:48:03.489Z,70.65
2019-01-24T13:50:32.585Z,69.39
2019-01-24T13:53:01.746Z,69.21
2019-01-24T13:55:30.861Z,69.68
2019-01-24T13:58:00.238Z,69.42
2019-01-24T14:00:34.497Z,69.71
2019-01-24T14:03:09.866Z,69.34
2019-01-24T14:05:38.961Z,69.29
2019-01-24T14:08:08.093Z,69.82
2019-01-24T14:10:37.227Z,69.07
2019-01-24T14:13:06.358Z,68.86
2019-01-24T14:15:35.466Z,68.52
2019-01-24T14:18:04.681Z,68.94
2019-01-24T14:20:33.747Z,68.72
2019-01-24T14:23:02.872Z,69.50
2019-01-24T14:25:32.020Z,70.34
2019-01-24T14:28:01.192Z,69.90
2019-01-24T14:30:30.550Z,69.64
2019-01-24T14:32:59.681Z,68.81
2019-01-24T14:35:28.736Z,69.62
2019-01-24T14:37:57.915Z,69.12
2019-01-24T14:40:27.068Z,68.86
2019-01-24T14:42:56.297Z,69.27
2019-01-24T14:45:25.490Z,69.41
2019-01-24T14:47:54.591Z,70.29
2019-01-24T14:50:24.959Z,70.72
2019-01-24T14:52:54.118Z,69.88
2019-01-24T14:55:23.174Z,69.42
2019-01-24T14:57:52.246Z,68.70
2019-01-24T15:00:42.251Z,69.53
2019-01-24T15:03:11.405Z,69.92
2019-01-24T15:05:40.555Z,70.10
2019-01-24T15:08:09.712Z,69.64
2019-01-24T15:10:38.857Z,70.71
2019-01-24T15:13:07.995Z,70.02
2019-01-24T15:15:37.117Z,69.94
2019-01-24T15:18:06.208Z,69.93
2019-01-24T15:20:35.350Z,70.25
2019-01-24T15:23:04.481Z,69.96
2019-01-24T15:25:33.610Z,69.86
2019-01-24T15:28:02.653Z,69.64
2019-01-24T15:30:31.966Z,69.08
2019-01-24T15:33:01.185Z,68.94
2019-01-24T15:35:30.277Z,68.50
2019-01-24T15:37:59.388Z,68.68
2019-01-24T15:40:30.059Z,69.83
2019-01-24T15:42:59.175Z,69.93
2019-01-24T15:45:28.245Z,70.78
2019-01-24T15:47:58.370Z,70.71
2019-01-24T15:50:27.434Z,71.24
2019-01-24T15:52:56.542Z,70.51
2019-01-24T15:55:25.737Z,69.18
2019-01-24T15:57:54.905Z,68.51
2019-01-24T16:00:29.236Z,68.71
2019-01-24T16:02:58.304Z,69.81
2019-01-24T16:05:27.391Z,70.95
2019-01-24T16:08:01.623Z,70.66
2019-01-24T16:10:27.349Z,68.78
2019-01-24T16:12:56.483Z,69.45
2019-01-24T16:15:33.569Z,68.85
2019-01-24T16:18:02.704Z,67.73
2019-01-24T16:20:31.831Z,68.49
2019-01-24T16:23:00.928Z,67.88
2019-01-24T16:25:31.241Z,69.18
2019-01-24T16:28:00.355Z,69.69
2019-01-24T16:30:30.805Z,68.50
2019-01-24T16:33:00.243Z,67.46
2019-01-24T16:35:29.433Z,68.71
2019-01-24T16:37:58.681Z,68.89
2019-01-24T16:40:28.465Z,70.10
2019-01-24T16:42:57.576Z,70.23
2019-01-24T16:45:27.981Z,68.36
2019-01-24T16:47:57.158Z,67.83
2019-01-24T16:50:26.705Z,68.42
2019-01-24T16:52:55.856Z,67.47
2019-01-24T16:55:25.138Z,67.35
2019-01-24T16:57:54.916Z,68.10
2019-01-24T17:00:29.597Z,69.15
2019-01-24T17:02:58.803Z,70.15
2019-01-24T17:05:27.939Z,68.95
2019-01-24T17:07:57.140Z,68.22
2019-01-24T17:10:26.334Z,69.11
2019-01-24T17:12:55.454Z,70.25
2019-01-24T17:15:24.463Z,67.96
2019-01-24T17:17:53.540Z,67.14
2019-01-24T17:20:24.418Z,66.76
2019-01-24T17:22:53.614Z,66.87
2019-01-24T17:25:24.303Z,67.66
2019-01-24T17:27:53.531Z,68.79
2019-01-24T17:30:24.302Z,68.72
2019-01-24T17:32:53.391Z,66.27
2019-01-24T17:35:22.657Z,66.39
2019-01-24T17:37:51.798Z,67.70
2019-01-24T17:40:23.189Z,68.67
2019-01-24T17:42:52.314Z,67.74
2019-01-24T17:45:21.495Z,67.82
2019-01-24T17:47:50.693Z,68.36
2019-01-24T17:50:19.819Z,68.74
2019-01-24T17:52:48.890Z,68.52
2019-01-24T17:55:20.678Z,69.11
2019-01-24T17:57:49.774Z,68.43
2019-01-24T18:00:20.533Z,69.23
2019-01-24T18:02:49.695Z,68.97
2019-01-24T18:05:18.885Z,68.68
2019-01-24T18:07:47.949Z,69.49
2019-01-24T18:10:19.486Z,68.05
2019-01-24T18:12:48.637Z,68.92
2019-01-24T18:15:23.005Z,69.07
2019-01-24T18:17:52.115Z,68.20
2019-01-24T18:20:22.484Z,67.65
2019-01-24T18:22:51.583Z,67.81
2019-01-24T18:25:20.639Z,65.93
2019-01-24T18:27:49.708Z,66.53
2019-01-24T18:30:23.504Z,67.46
2019-01-24T18:32:52.693Z,68.10
2019-01-24T18:35:21.812Z,69.20
2019-01-24T18:37:51.177Z,67.27
2019-01-24T18:40:21.786Z,68.00
2019-01-24T18:42:50.996Z,67.87
2019-01-24T18:45:22.935Z,67.83
2019-01-24T18:47:51.995Z,65.36
2019-01-24T18:50:21.643Z,65.44
2019-01-24T18:52:50.821Z,66.80
2019-01-24T18:55:19.925Z,66.03
2019-01-24T18:57:49.067Z,66.07
2019-01-24T19:00:24.154Z,66.13
2019-01-24T19:02:53.240Z,65.34
2019-01-24T19:05:22.314Z,66.00
2019-01-24T19:07:51.436Z,67.02
2019-01-24T19:10:20.489Z,67.82
2019-01-24T19:12:49.606Z,67.84
2019-01-24T19:15:19.026Z,68.67
2019-01-24T19:17:48.306Z,67.84
2019-01-24T19:20:17.406Z,66.57
2019-01-24T19:22:46.523Z,66.71
2019-01-24T19:25:15.693Z,68.29
2019-01-24T19:27:44.904Z,68.72
2019-01-24T19:30:17.795Z,68.37
2019-01-24T19:32:46.893Z,68.53
2019-01-24T19:35:15.979Z,65.87
2019-01-24T19:37:45.193Z,65.99
2019-01-24T19:40:15.467Z,67.08
2019-01-24T19:42:44.736Z,68.00
2019-01-24T19:45:18.860Z,68.72
2019-01-24T19:47:48.088Z,67.26
2019-01-24T19:50:19.606Z,67.30
2019-01-24T19:52:48.690Z,67.44
2019-01-24T19:55:17.830Z,67.49
2019-01-24T19:57:47.057Z,67.65
2019-01-24T20:00:20.963Z,67.31
2019-01-24T20:02:50.077Z,66.92
2019-01-24T20:05:19.308Z,67.51
2019-01-24T20:07:48.443Z,67.36
2019-01-24T20:10:19.251Z,67.27
2019-01-24T20:12:48.378Z,67.69
2019-01-24T20:15:21.887Z,68.12
2019-01-24T20:17:51.065Z,67.05
2019-01-24T20:20:20.182Z,66.84
2019-01-24T20:22:49.431Z,66.51
2019-01-24T20:25:19.813Z,67.23
2019-01-24T20:27:48.905Z,67.87
2019-01-24T20:30:23.092Z,66.12
2019-01-24T20:32:52.175Z,65.98
2019-01-24T20:35:23.829Z,66.32
2019-01-24T20:37:52.993Z,66.13
2019-01-24T20:40:22.333Z,65.47
2019-01-24T20:42:51.492Z,65.97
2019-01-24T20:45:20.625Z,65.08
2019-01-24T20:47:49.712Z,65.82
2019-01-24T20:50:18.802Z,66.83
2019-01-24T20:52:47.923Z,66.22
2019-01-24T20:55:17.094Z,65.39
2019-01-24T20:57:46.259Z,66.30
2019-01-24T21:00:17.302Z,65.59
2019-01-24T21:02:46.354Z,65.99
2019-01-24T21:05:17.279Z,64.17
2019-01-24T21:07:46.469Z,64.60
2019-01-24T21:10:20.467Z,64.97
2019-01-24T21:12:49.616Z,65.04
2019-01-24T21:15:19.048Z,64.17
2019-01-24T21:17:48.201Z,64.57
2019-01-24T21:20:19.463Z,65.11
2019-01-24T21:22:48.621Z,64.13
2019-01-24T21:25:18.501Z,63.88
2019-01-24T21:27:47.691Z,64.77
2019-01-24T21:30:22.426Z,67.15
2019-01-24T21:32:51.609Z,71.48
2019-01-24T21:35:20.746Z,72.48
2019-01-24T21:37:49.942Z,73.36
2019-01-24T21:40:19.917Z,74.11
2019-01-24T21:42:49.193Z,74.69
2019-01-24T21:45:20.566Z,75.07
2019-01-24T21:47:49.628Z,75.43
2019-01-24T21:50:19.817Z,75.53
2019-01-24T21:52:48.966Z,75.22
2019-01-24T21:55:19.132Z,75.37
2019-01-24T21:57:48.362Z,75.33
2019-01-24T22:00:19.374Z,76.04
2019-01-24T22:02:48.448Z,76.56
2019-01-24T22:05:17.610Z,76.97
2019-01-24T22:07:46.780Z,76.91
2019-01-24T22:10:17.996Z,77.10
2019-01-24T22:12:48.362Z,76.32
2019-01-24T22:15:18.484Z,75.33
2019-01-24T22:17:47.753Z,74.50
2019-01-24T22:20:17.104Z,74.46
2019-01-24T22:22:46.266Z,73.71
2019-01-24T22:25:23.751Z,73.75
2019-01-24T22:27:52.934Z,72.77
2019-01-24T22:30:25.252Z,72.55
2019-01-24T22:32:54.335Z,71.50
2019-01-24T22:35:23.468Z,71.21
2019-01-24T22:37:52.608Z,70.85
2019-01-24T22:40:21.689Z,72.31
2019-01-24T22:42:50.986Z,73.05
2019-01-24T22:45:22.108Z,73.27
2019-01-24T22:47:51.235Z,73.25
2019-01-24T22:50:20.398Z,73.09
2019-01-24T22:52:49.524Z,73.93
2019-01-24T22:55:18.598Z,74.62
2019-01-24T22:57:47.761Z,74.47
2019-01-24T23:00:53.510Z,75.32
2019-01-24T23:03:40.928Z,74.96
2019-01-24T23:06:10.087Z,75.57
2019-01-24T23:08:39.205Z,75.30
2019-01-24T23:11:08.360Z,75.20
2019-01-24T23:13:37.513Z,75.70
2019-01-24T23:16:06.733Z,75.26
2019-01-24T23:18:35.879Z,74.36
2019-01-24T23:21:05.000Z,75.04
2019-01-24T23:23:34.179Z,75.13
2019-01-24T23:26:03.314Z,75.65
2019-01-24T23:28:32.434Z,74.97
2019-01-24T23:31:01.567Z,75.27
2019-01-24T23:33:30.658Z,75.70
2019-01-24T23:35:59.785Z,76.26
2019-01-24T23:38:28.861Z,76.06
2019-01-24T23:40:57.973Z,74.58
2019-01-24T23:43:27.314Z,74.55
2019-01-24T23:45:56.411Z,74.10
2019-01-24T23:48:25.598Z,74.70
2019-01-24T23:50:54.725Z,74.67
2019-01-24T23:53:23.841Z,73.89
2019-01-24T23:55:52.930Z,73.60
2019-01-24T23:58:22.139Z,74.40
